Terminal Aerodrome Forecast
Issued by NWS Corpus Christi, TX

Current Version | Previous Version | Text Only | Print | Product List | Glossary Off
Versions: 1 2 3 4 5 6 7 8 9 10 11 12 13 14 15 16 17 18 19 20 21 22 23

000
FTUS44 KCRP 160900 AAB
TAFCRP
TAF AMD
KCRP 160938Z 1610/1706 05005KT P6SM SHRA SCT015 OVC100
      TEMPO 1610/1612 4SM TSRA BR BKN015CB BKN025
     FM161200 05007KT P6SM VCSH SCT020
      TEMPO 1614/1618 VRB15G25KT 5SM TSRA OVC015CB
     FM161800 11010KT P6SM VCTS BKN035CB
      TEMPO 1618/1622 2SM +TSRA BKN025CB
     FM162200 13012G18KT P6SM VCTS BKN035CB
     FM170200 13008KT P6SM SCT030=

USA.gov is the U.S. government's official web portal to all federal, state and local government web resources and services.